< Typhoon 201110 2011 Season Typhoon 201112 >
Typhoon 201111 (NANMADOL)
General InformationTrack Information on Google MapsDetailed Wind InformationAccess Analytics MapList of All Images || NewsDisaster Info.WeblogTrackbackTyphoon FrontTwiphoonTyphoon Now!Typhoon ImaginationResourceGoogle EarthGE AnimationAtom FeedGeoJSON
Detalied Best Track (Time Zone = UTC)
Year Month Day Hour Lat. Long. Pressure (hPa) Wind (kt) Class Image Chart
2011 8 21 12 12.4 128.6 1004 0 2 Image Chart
2011 8 21 18 13.1 128.3 1004 0 2 Image Chart
2011 8 22 00 13.8 128.0 1004 0 2 Image Chart
2011 8 22 06 14.3 127.8 1004 0 2 Image Chart
2011 8 22 12 14.6 127.6 1004 0 2 Image Chart
2011 8 22 18 15.0 127.4 1004 0 2 Image Chart
2011 8 23 00 15.3 127.3 1002 0 2 Image Chart
2011 8 23 06 15.4 127.2 1000 0 2 Image Chart
2011 8 23 12 15.6 127.2 996 35 3 Image Chart
2011 8 23 18 15.8 127.1 994 40 3 Image Chart
2011 8 24 00 16.0 127.0 992 45 3 Image Chart
2011 8 24 06 16.1 126.8 990 50 4 Image Chart
2011 8 24 12 15.9 126.4 985 55 4 Image Chart
2011 8 24 18 16.0 126.0 980 60 4 Image Chart
2011 8 25 00 16.2 125.6 975 65 5 Image Chart
2011 8 25 06 16.3 125.2 965 75 5 Image Chart
2011 8 25 12 16.5 124.5 955 80 5 Image Chart
2011 8 25 18 16.4 124.0 940 90 5 Image Chart
2011 8 26 00 16.7 123.9 925 100 5 Image Chart
2011 8 26 06 17.2 123.6 925 100 5 Image Chart
2011 8 26 12 17.5 123.3 925 100 5 Image Chart
2011 8 26 18 17.9 122.8 935 95 5 Image Chart
2011 8 27 00 18.1 122.4 945 90 5 Image Chart
2011 8 27 06 18.7 121.9 950 85 5 Image Chart
2011 8 27 12 19.3 121.7 955 80 5 Image Chart
2011 8 27 18 19.7 121.3 970 70 5 Image Chart
2011 8 28 00 20.4 121.4 975 65 5 Image Chart
2011 8 28 06 20.9 121.2 975 65 5 Image Chart
2011 8 28 12 21.6 121.0 980 60 4 Image Chart
2011 8 28 18 22.1 121.0 980 60 4 Image Chart
2011 8 29 00 22.8 120.3 985 55 4 Image Chart
2011 8 29 06 23.1 119.9 990 50 4 Image Chart
2011 8 29 12 23.5 119.7 990 50 4 Image Chart
2011 8 29 18 23.7 119.5 992 45 3 Image Chart
2011 8 30 00 23.9 119.4 992 45 3 Image Chart
2011 8 30 06 24.4 119.2 992 40 3 Image Chart
2011 8 30 12 24.5 119.1 992 40 3 Image Chart
2011 8 30 18 24.6 118.9 994 35 3 Image Chart
2011 8 31 00 24.7 118.6 996 0 2 Image Chart
2011 8 31 06 24.7 117.7 996 0 2 Image Chart
2011 8 31 12 24.4 116.9 998 0 2 Image Chart
Japan Meteorological Agency Best Track Data | Correction Date : 2011-10-11
< Typhoon 201110 2011 Season Typhoon 201112 >

Help